sensor_id;sensor_type;location;lat;lon;timestamp;P1;durP1;ratioP1;P2;durP2;ratioP2
5882;SDS011;2967;51.488;6.618;2024-02-14T00:00:41;2.50;;;1.93;;
5882;SDS011;2967;51.488;6.618;2024-02-14T00:05:46;3.97;;;1.80;;
5882;SDS011;2967;51.488;6.618;2024-02-14T00:10:49;3.13;;;1.80;;
5882;SDS011;2967;51.488;6.618;2024-02-14T00:15:53;2.70;;;2.07;;
5882;SDS011;2967;51.488;6.618;2024-02-14T00:20:59;2.60;;;2.03;;
5882;SDS011;2967;51.488;6.618;2024-02-14T00:26:05;3.50;;;1.97;;
5882;SDS011;2967;51.488;6.618;2024-02-14T00:31:09;2.73;;;1.97;;
5882;SDS011;2967;51.488;6.618;2024-02-14T00:36:13;13.93;;;2.77;;
5882;SDS011;2967;51.488;6.618;2024-02-14T00:41:16;2.83;;;1.60;;
5882;SDS011;2967;51.488;6.618;2024-02-14T00:46:19;4.23;;;1.60;;
5882;SDS011;2967;51.488;6.618;2024-02-14T00:51:24;6.03;;;2.30;;
5882;SDS011;2967;51.488;6.618;2024-02-14T00:56:29;3.63;;;1.80;;
5882;SDS011;2967;51.488;6.618;2024-02-14T01:01:32;3.53;;;1.80;;
5882;SDS011;2967;51.488;6.618;2024-02-14T01:06:36;2.60;;;2.00;;
5882;SDS011;2967;51.488;6.618;2024-02-14T01:11:42;2.13;;;1.80;;
5882;SDS011;2967;51.488;6.618;2024-02-14T01:16:45;3.67;;;1.67;;
5882;SDS011;2967;51.488;6.618;2024-02-14T01:21:49;6.60;;;2.20;;
5882;SDS011;2967;51.488;6.618;2024-02-14T01:26:52;3.37;;;1.60;;
5882;SDS011;2967;51.488;6.618;2024-02-14T01:31:56;2.77;;;1.57;;
5882;SDS011;2967;51.488;6.618;2024-02-14T01:37:01;2.03;;;1.50;;
5882;SDS011;2967;51.488;6.618;2024-02-14T01:42:04;4.00;;;1.60;;
5882;SDS011;2967;51.488;6.618;2024-02-14T01:47:08;2.83;;;1.73;;
5882;SDS011;2967;51.488;6.618;2024-02-14T01:52:14;2.83;;;1.50;;
5882;SDS011;2967;51.488;6.618;2024-02-14T01:57:17;1.70;;;1.60;;
5882;SDS011;2967;51.488;6.618;2024-02-14T02:02:21;2.77;;;1.77;;
5882;SDS011;2967;51.488;6.618;2024-02-14T02:07:26;4.50;;;2.07;;
5882;SDS011;2967;51.488;6.618;2024-02-14T02:18:00;2.90;;;2.20;;
5882;SDS011;2967;51.488;6.618;2024-02-14T02:23:12;3.57;;;1.87;;
5882;SDS011;2967;51.488;6.618;2024-02-14T02:28:20;2.70;;;2.10;;
5882;SDS011;2967;51.488;6.618;2024-02-14T02:33:23;4.60;;;2.20;;
5882;SDS011;2967;51.488;6.618;2024-02-14T02:38:27;4.93;;;1.77;;
5882;SDS011;2967;51.488;6.618;2024-02-14T02:43:30;3.17;;;2.00;;
5882;SDS011;2967;51.488;6.618;2024-02-14T02:48:33;2.87;;;1.93;;
5882;SDS011;2967;51.488;6.618;2024-02-14T02:53:37;4.77;;;2.10;;
5882;SDS011;2967;51.488;6.618;2024-02-14T02:58:42;2.20;;;1.93;;
5882;SDS011;2967;51.488;6.618;2024-02-14T03:03:45;3.23;;;2.40;;
5882;SDS011;2967;51.488;6.618;2024-02-14T03:08:49;3.90;;;2.50;;
5882;SDS011;2967;51.488;6.618;2024-02-14T03:13:56;4.60;;;2.40;;
5882;SDS011;2967;51.488;6.618;2024-02-14T03:18:59;2.93;;;2.63;;
5882;SDS011;2967;51.488;6.618;2024-02-14T03:24:04;3.30;;;3.00;;
5882;SDS011;2967;51.488;6.618;2024-02-14T03:29:11;5.40;;;2.20;;
5882;SDS011;2967;51.488;6.618;2024-02-14T03:34:14;3.67;;;2.30;;
5882;SDS011;2967;51.488;6.618;2024-02-14T03:39:38;5.40;;;2.70;;
5882;SDS011;2967;51.488;6.618;2024-02-14T03:45:01;4.27;;;2.50;;
5882;SDS011;2967;51.488;6.618;2024-02-14T03:50:27;6.57;;;2.83;;
5882;SDS011;2967;51.488;6.618;2024-02-14T03:55:33;3.60;;;2.80;;
5882;SDS011;2967;51.488;6.618;2024-02-14T04:00:46;3.50;;;3.10;;
5882;SDS011;2967;51.488;6.618;2024-02-14T04:05:52;6.93;;;2.93;;
5882;SDS011;2967;51.488;6.618;2024-02-14T04:10:56;2.93;;;2.70;;
5882;SDS011;2967;51.488;6.618;2024-02-14T04:16:01;4.93;;;3.10;;
5882;SDS011;2967;51.488;6.618;2024-02-14T04:21:07;5.17;;;3.20;;
5882;SDS011;2967;51.488;6.618;2024-02-14T04:26:19;4.60;;;2.77;;
5882;SDS011;2967;51.488;6.618;2024-02-14T04:31:23;5.93;;;2.73;;
5882;SDS011;2967;51.488;6.618;2024-02-14T04:36:26;5.00;;;3.00;;
5882;SDS011;2967;51.488;6.618;2024-02-14T04:41:32;5.23;;;3.27;;
5882;SDS011;2967;51.488;6.618;2024-02-14T04:46:57;4.20;;;3.20;;
5882;SDS011;2967;51.488;6.618;2024-02-14T04:52:01;3.33;;;2.67;;
5882;SDS011;2967;51.488;6.618;2024-02-14T04:57:05;3.07;;;2.80;;
5882;SDS011;2967;51.488;6.618;2024-02-14T05:02:08;3.50;;;3.20;;
5882;SDS011;2967;51.488;6.618;2024-02-14T05:07:12;7.60;;;3.37;;
5882;SDS011;2967;51.488;6.618;2024-02-14T05:12:16;5.37;;;2.90;;
5882;SDS011;2967;51.488;6.618;2024-02-14T05:17:22;3.57;;;3.00;;
5882;SDS011;2967;51.488;6.618;2024-02-14T05:22:25;5.33;;;3.30;;
5882;SDS011;2967;51.488;6.618;2024-02-14T05:27:30;4.10;;;3.40;;
5882;SDS011;2967;51.488;6.618;2024-02-14T05:32:33;3.93;;;2.70;;
5882;SDS011;2967;51.488;6.618;2024-02-14T05:37:36;6.13;;;2.87;;
5882;SDS011;2967;51.488;6.618;2024-02-14T05:42:41;4.83;;;3.20;;
5882;SDS011;2967;51.488;6.618;2024-02-14T05:47:47;3.93;;;3.03;;
5882;SDS011;2967;51.488;6.618;2024-02-14T05:52:50;6.63;;;4.27;;
5882;SDS011;2967;51.488;6.618;2024-02-14T05:57:54;7.20;;;5.40;;
5882;SDS011;2967;51.488;6.618;2024-02-14T06:03:00;5.70;;;3.40;;
5882;SDS011;2967;51.488;6.618;2024-02-14T06:08:03;4.50;;;4.10;;
5882;SDS011;2967;51.488;6.618;2024-02-14T06:13:08;11.53;;;7.50;;
5882;SDS011;2967;51.488;6.618;2024-02-14T06:18:11;12.00;;;4.97;;
5882;SDS011;2967;51.488;6.618;2024-02-14T06:23:14;4.23;;;3.90;;
5882;SDS011;2967;51.488;6.618;2024-02-14T06:28:18;8.37;;;4.97;;
5882;SDS011;2967;51.488;6.618;2024-02-14T06:33:25;12.37;;;6.73;;
5882;SDS011;2967;51.488;6.618;2024-02-14T06:38:31;7.20;;;5.03;;
5882;SDS011;2967;51.488;6.618;2024-02-14T06:43:36;7.30;;;4.70;;
5882;SDS011;2967;51.488;6.618;2024-02-14T06:48:42;7.97;;;4.57;;
5882;SDS011;2967;51.488;6.618;2024-02-14T06:53:45;4.93;;;4.43;;
5882;SDS011;2967;51.488;6.618;2024-02-14T06:58:50;5.97;;;5.37;;
5882;SDS011;2967;51.488;6.618;2024-02-14T07:03:55;7.53;;;5.10;;
5882;SDS011;2967;51.488;6.618;2024-02-14T07:08:58;6.60;;;5.00;;
5882;SDS011;2967;51.488;6.618;2024-02-14T07:14:02;6.80;;;5.93;;
5882;SDS011;2967;51.488;6.618;2024-02-14T07:19:05;6.57;;;4.77;;
5882;SDS011;2967;51.488;6.618;2024-02-14T07:24:08;15.70;;;8.70;;
5882;SDS011;2967;51.488;6.618;2024-02-14T07:29:12;8.53;;;5.43;;
5882;SDS011;2967;51.488;6.618;2024-02-14T07:34:15;7.10;;;5.60;;
5882;SDS011;2967;51.488;6.618;2024-02-14T07:39:18;6.47;;;5.60;;
5882;SDS011;2967;51.488;6.618;2024-02-14T07:44:22;7.53;;;5.20;;
5882;SDS011;2967;51.488;6.618;2024-02-14T07:49:25;9.40;;;5.77;;
5882;SDS011;2967;51.488;6.618;2024-02-14T07:54:28;9.07;;;5.20;;
5882;SDS011;2967;51.488;6.618;2024-02-14T07:59:32;5.97;;;4.67;;
5882;SDS011;2967;51.488;6.618;2024-02-14T08:04:35;7.57;;;5.03;;
5882;SDS011;2967;51.488;6.618;2024-02-14T08:09:37;5.80;;;5.10;;
5882;SDS011;2967;51.488;6.618;2024-02-14T08:14:43;7.90;;;4.87;;
5882;SDS011;2967;51.488;6.618;2024-02-14T08:19:46;5.27;;;4.40;;
5882;SDS011;2967;51.488;6.618;2024-02-14T08:24:49;6.50;;;4.40;;
5882;SDS011;2967;51.488;6.618;2024-02-14T08:29:54;8.60;;;4.47;;
5882;SDS011;2967;51.488;6.618;2024-02-14T08:35:02;11.13;;;4.93;;
5882;SDS011;2967;51.488;6.618;2024-02-14T08:40:06;9.07;;;3.90;;
5882;SDS011;2967;51.488;6.618;2024-02-14T08:45:12;7.50;;;4.00;;
5882;SDS011;2967;51.488;6.618;2024-02-14T08:50:15;8.20;;;4.33;;
5882;SDS011;2967;51.488;6.618;2024-02-14T08:55:18;5.60;;;4.87;;
5882;SDS011;2967;51.488;6.618;2024-02-14T09:00:23;4.07;;;3.57;;
5882;SDS011;2967;51.488;6.618;2024-02-14T09:05:26;6.10;;;3.80;;
5882;SDS011;2967;51.488;6.618;2024-02-14T09:10:31;4.73;;;3.90;;
5882;SDS011;2967;51.488;6.618;2024-02-14T09:15:35;8.53;;;4.27;;
5882;SDS011;2967;51.488;6.618;2024-02-14T09:20:38;5.07;;;3.20;;
5882;SDS011;2967;51.488;6.618;2024-02-14T09:25:42;8.10;;;4.20;;
5882;SDS011;2967;51.488;6.618;2024-02-14T09:30:47;6.07;;;3.63;;
5882;SDS011;2967;51.488;6.618;2024-02-14T09:35:51;9.30;;;3.87;;
5882;SDS011;2967;51.488;6.618;2024-02-14T09:40:55;10.80;;;3.93;;
5882;SDS011;2967;51.488;6.618;2024-02-14T09:46:05;6.03;;;3.60;;
5882;SDS011;2967;51.488;6.618;2024-02-14T09:51:09;5.53;;;3.23;;
5882;SDS011;2967;51.488;6.618;2024-02-14T09:56:13;5.37;;;3.70;;
5882;SDS011;2967;51.488;6.618;2024-02-14T10:01:20;7.20;;;3.47;;
5882;SDS011;2967;51.488;6.618;2024-02-14T10:06:25;12.20;;;3.73;;
5882;SDS011;2967;51.488;6.618;2024-02-14T10:11:29;7.33;;;3.47;;
5882;SDS011;2967;51.488;6.618;2024-02-14T10:16:35;5.87;;;2.73;;
5882;SDS011;2967;51.488;6.618;2024-02-14T10:21:42;5.03;;;3.00;;
5882;SDS011;2967;51.488;6.618;2024-02-14T10:26:46;3.87;;;2.50;;
5882;SDS011;2967;51.488;6.618;2024-02-14T10:31:50;3.60;;;3.20;;
5882;SDS011;2967;51.488;6.618;2024-02-14T10:36:53;4.87;;;3.17;;
5882;SDS011;2967;51.488;6.618;2024-02-14T10:41:59;6.70;;;3.43;;
5882;SDS011;2967;51.488;6.618;2024-02-14T10:47:05;6.07;;;3.60;;
5882;SDS011;2967;51.488;6.618;2024-02-14T10:52:11;4.70;;;3.60;;
5882;SDS011;2967;51.488;6.618;2024-02-14T10:57:18;5.30;;;3.63;;
5882;SDS011;2967;51.488;6.618;2024-02-14T11:02:27;7.40;;;2.97;;
5882;SDS011;2967;51.488;6.618;2024-02-14T11:07:34;6.07;;;3.23;;
5882;SDS011;2967;51.488;6.618;2024-02-14T11:12:37;7.10;;;3.23;;
5882;SDS011;2967;51.488;6.618;2024-02-14T11:17:42;4.50;;;2.77;;
5882;SDS011;2967;51.488;6.618;2024-02-14T11:22:55;8.50;;;3.03;;
5882;SDS011;2967;51.488;6.618;2024-02-14T11:27:59;5.30;;;2.40;;
5882;SDS011;2967;51.488;6.618;2024-02-14T11:33:15;6.53;;;2.60;;
5882;SDS011;2967;51.488;6.618;2024-02-14T11:38:20;5.40;;;2.90;;
5882;SDS011;2967;51.488;6.618;2024-02-14T11:43:23;3.50;;;2.33;;
5882;SDS011;2967;51.488;6.618;2024-02-14T11:48:28;6.93;;;2.63;;
5882;SDS011;2967;51.488;6.618;2024-02-14T11:53:31;2.40;;;2.20;;
5882;SDS011;2967;51.488;6.618;2024-02-14T11:58:34;3.90;;;2.03;;
5882;SDS011;2967;51.488;6.618;2024-02-14T12:03:38;3.10;;;2.23;;
5882;SDS011;2967;51.488;6.618;2024-02-14T12:08:43;4.50;;;2.30;;
5882;SDS011;2967;51.488;6.618;2024-02-14T12:13:49;3.00;;;2.30;;
5882;SDS011;2967;51.488;6.618;2024-02-14T12:19:03;2.53;;;2.03;;
5882;SDS011;2967;51.488;6.618;2024-02-14T12:24:08;5.33;;;2.77;;
5882;SDS011;2967;51.488;6.618;2024-02-14T12:29:12;2.20;;;1.53;;
5882;SDS011;2967;51.488;6.618;2024-02-14T12:34:17;3.20;;;2.90;;
5882;SDS011;2967;51.488;6.618;2024-02-14T12:39:26;3.23;;;2.93;;
5882;SDS011;2967;51.488;6.618;2024-02-14T12:44:30;2.93;;;2.07;;
5882;SDS011;2967;51.488;6.618;2024-02-14T12:49:34;3.87;;;2.03;;
5882;SDS011;2967;51.488;6.618;2024-02-14T12:54:37;3.80;;;1.97;;
5882;SDS011;2967;51.488;6.618;2024-02-14T12:59:40;2.70;;;1.80;;
5882;SDS011;2967;51.488;6.618;2024-02-14T13:04:44;4.90;;;2.30;;
5882;SDS011;2967;51.488;6.618;2024-02-14T13:09:47;2.43;;;1.50;;
5882;SDS011;2967;51.488;6.618;2024-02-14T13:14:50;3.27;;;1.70;;
5882;SDS011;2967;51.488;6.618;2024-02-14T13:19:58;2.53;;;2.23;;
5882;SDS011;2967;51.488;6.618;2024-02-14T13:25:04;8.23;;;3.73;;
5882;SDS011;2967;51.488;6.618;2024-02-14T13:30:07;2.10;;;1.70;;
5882;SDS011;2967;51.488;6.618;2024-02-14T13:35:12;3.10;;;1.67;;
5882;SDS011;2967;51.488;6.618;2024-02-14T13:40:15;2.10;;;1.70;;
5882;SDS011;2967;51.488;6.618;2024-02-14T13:45:18;3.13;;;1.90;;
5882;SDS011;2967;51.488;6.618;2024-02-14T13:50:22;3.77;;;1.70;;
5882;SDS011;2967;51.488;6.618;2024-02-14T13:55:26;6.87;;;1.77;;
5882;SDS011;2967;51.488;6.618;2024-02-14T14:00:28;2.80;;;1.67;;
5882;SDS011;2967;51.488;6.618;2024-02-14T14:05:32;2.00;;;1.60;;
5882;SDS011;2967;51.488;6.618;2024-02-14T14:10:35;3.53;;;1.63;;
5882;SDS011;2967;51.488;6.618;2024-02-14T14:15:38;2.33;;;1.60;;
5882;SDS011;2967;51.488;6.618;2024-02-14T14:20:43;2.10;;;1.70;;
5882;SDS011;2967;51.488;6.618;2024-02-14T14:25:46;2.20;;;2.00;;
5882;SDS011;2967;51.488;6.618;2024-02-14T14:30:52;1.93;;;1.40;;
5882;SDS011;2967;51.488;6.618;2024-02-14T14:35:57;1.60;;;1.50;;
5882;SDS011;2967;51.488;6.618;2024-02-14T14:41:00;1.47;;;1.37;;
5882;SDS011;2967;51.488;6.618;2024-02-14T14:46:03;2.33;;;1.17;;
5882;SDS011;2967;51.488;6.618;2024-02-14T14:51:10;1.40;;;1.30;;
5882;SDS011;2967;51.488;6.618;2024-02-14T14:56:12;1.83;;;1.67;;
5882;SDS011;2967;51.488;6.618;2024-02-14T15:01:15;1.57;;;1.30;;
5882;SDS011;2967;51.488;6.618;2024-02-14T15:06:19;1.70;;;1.60;;
5882;SDS011;2967;51.488;6.618;2024-02-14T15:11:23;2.20;;;1.40;;
5882;SDS011;2967;51.488;6.618;2024-02-14T15:16:26;2.33;;;1.50;;
5882;SDS011;2967;51.488;6.618;2024-02-14T15:21:31;2.77;;;1.70;;
5882;SDS011;2967;51.488;6.618;2024-02-14T15:26:34;2.33;;;1.57;;
5882;SDS011;2967;51.488;6.618;2024-02-14T15:31:51;1.87;;;1.77;;
5882;SDS011;2967;51.488;6.618;2024-02-14T15:37:13;2.07;;;1.80;;
5882;SDS011;2967;51.488;6.618;2024-02-14T15:42:19;1.67;;;1.57;;
5882;SDS011;2967;51.488;6.618;2024-02-14T15:47:21;2.10;;;1.87;;
5882;SDS011;2967;51.488;6.618;2024-02-14T15:52:26;3.80;;;2.10;;
5882;SDS011;2967;51.488;6.618;2024-02-14T15:57:30;1.77;;;1.67;;
5882;SDS011;2967;51.488;6.618;2024-02-14T16:02:33;2.17;;;2.00;;
5882;SDS011;2967;51.488;6.618;2024-02-14T16:07:37;2.13;;;2.03;;
5882;SDS011;2967;51.488;6.618;2024-02-14T16:12:41;2.87;;;2.30;;
5882;SDS011;2967;51.488;6.618;2024-02-14T16:17:45;6.50;;;2.47;;
5882;SDS011;2967;51.488;6.618;2024-02-14T16:22:50;3.40;;;3.10;;
5882;SDS011;2967;51.488;6.618;2024-02-14T16:27:55;3.00;;;2.80;;
5882;SDS011;2967;51.488;6.618;2024-02-14T16:33:04;2.80;;;2.40;;
5882;SDS011;2967;51.488;6.618;2024-02-14T16:38:09;2.80;;;2.60;;
5882;SDS011;2967;51.488;6.618;2024-02-14T16:43:18;3.17;;;2.87;;
5882;SDS011;2967;51.488;6.618;2024-02-14T16:48:21;10.30;;;8.03;;
5882;SDS011;2967;51.488;6.618;2024-02-14T16:53:26;6.80;;;4.27;;
5882;SDS011;2967;51.488;6.618;2024-02-14T16:58:30;4.07;;;3.37;;
5882;SDS011;2967;51.488;6.618;2024-02-14T17:03:33;3.93;;;3.50;;
5882;SDS011;2967;51.488;6.618;2024-02-14T17:08:48;3.43;;;3.13;;
5882;SDS011;2967;51.488;6.618;2024-02-14T17:13:50;4.10;;;3.80;;
5882;SDS011;2967;51.488;6.618;2024-02-14T17:18:53;6.90;;;5.43;;
5882;SDS011;2967;51.488;6.618;2024-02-14T17:23:59;5.03;;;3.40;;
5882;SDS011;2967;51.488;6.618;2024-02-14T17:29:02;4.90;;;3.77;;
5882;SDS011;2967;51.488;6.618;2024-02-14T17:34:06;4.03;;;3.63;;
5882;SDS011;2967;51.488;6.618;2024-02-14T17:39:11;11.60;;;8.33;;
5882;SDS011;2967;51.488;6.618;2024-02-14T17:44:14;4.60;;;3.70;;
5882;SDS011;2967;51.488;6.618;2024-02-14T17:49:20;5.43;;;4.57;;
5882;SDS011;2967;51.488;6.618;2024-02-14T17:54:25;4.40;;;3.90;;
5882;SDS011;2967;51.488;6.618;2024-02-14T17:59:28;6.30;;;5.70;;
5882;SDS011;2967;51.488;6.618;2024-02-14T18:04:33;6.33;;;5.23;;
5882;SDS011;2967;51.488;6.618;2024-02-14T18:09:37;5.63;;;5.10;;
5882;SDS011;2967;51.488;6.618;2024-02-14T18:14:40;17.90;;;14.20;;
5882;SDS011;2967;51.488;6.618;2024-02-14T18:19:44;5.77;;;4.87;;
5882;SDS011;2967;51.488;6.618;2024-02-14T18:24:49;5.53;;;4.50;;
5882;SDS011;2967;51.488;6.618;2024-02-14T18:29:53;5.23;;;4.63;;
5882;SDS011;2967;51.488;6.618;2024-02-14T18:34:56;6.00;;;5.37;;
5882;SDS011;2967;51.488;6.618;2024-02-14T18:40:00;6.10;;;5.47;;
5882;SDS011;2967;51.488;6.618;2024-02-14T18:45:04;7.20;;;6.57;;
5882;SDS011;2967;51.488;6.618;2024-02-14T18:50:09;8.00;;;6.90;;
5882;SDS011;2967;51.488;6.618;2024-02-14T18:55:13;8.70;;;6.67;;
5882;SDS011;2967;51.488;6.618;2024-02-14T19:00:16;6.47;;;5.87;;
5882;SDS011;2967;51.488;6.618;2024-02-14T19:11:02;7.67;;;6.90;;
5882;SDS011;2967;51.488;6.618;2024-02-14T19:16:11;10.37;;;8.10;;
5882;SDS011;2967;51.488;6.618;2024-02-14T19:21:30;8.20;;;7.40;;
5882;SDS011;2967;51.488;6.618;2024-02-14T19:26:36;10.30;;;7.50;;
5882;SDS011;2967;51.488;6.618;2024-02-14T19:31:40;17.20;;;12.87;;
5882;SDS011;2967;51.488;6.618;2024-02-14T19:36:43;7.60;;;6.90;;
5882;SDS011;2967;51.488;6.618;2024-02-14T19:41:52;10.10;;;8.83;;
5882;SDS011;2967;51.488;6.618;2024-02-14T19:46:57;8.60;;;7.80;;
5882;SDS011;2967;51.488;6.618;2024-02-14T19:52:00;12.27;;;7.20;;
5882;SDS011;2967;51.488;6.618;2024-02-14T19:57:14;6.50;;;5.90;;
5882;SDS011;2967;51.488;6.618;2024-02-14T20:02:17;8.63;;;6.73;;
5882;SDS011;2967;51.488;6.618;2024-02-14T20:07:19;7.60;;;6.80;;
5882;SDS011;2967;51.488;6.618;2024-02-14T20:12:29;7.97;;;6.50;;
5882;SDS011;2967;51.488;6.618;2024-02-14T20:17:36;7.83;;;6.53;;
5882;SDS011;2967;51.488;6.618;2024-02-14T20:22:40;11.70;;;7.63;;
5882;SDS011;2967;51.488;6.618;2024-02-14T20:27:47;7.67;;;6.93;;
5882;SDS011;2967;51.488;6.618;2024-02-14T20:32:51;12.20;;;7.93;;
5882;SDS011;2967;51.488;6.618;2024-02-14T20:37:54;8.50;;;7.60;;
5882;SDS011;2967;51.488;6.618;2024-02-14T20:42:59;9.80;;;7.70;;
5882;SDS011;2967;51.488;6.618;2024-02-14T20:48:03;9.90;;;8.27;;
5882;SDS011;2967;51.488;6.618;2024-02-14T20:53:08;12.10;;;9.17;;
5882;SDS011;2967;51.488;6.618;2024-02-14T20:58:12;12.13;;;8.43;;
5882;SDS011;2967;51.488;6.618;2024-02-14T21:03:16;21.27;;;14.93;;
5882;SDS011;2967;51.488;6.618;2024-02-14T21:08:19;18.13;;;12.87;;
5882;SDS011;2967;51.488;6.618;2024-02-14T21:13:23;11.37;;;9.63;;
5882;SDS011;2967;51.488;6.618;2024-02-14T21:18:27;10.67;;;9.00;;
5882;SDS011;2967;51.488;6.618;2024-02-14T21:23:30;10.90;;;8.87;;
5882;SDS011;2967;51.488;6.618;2024-02-14T21:28:34;11.97;;;9.23;;
5882;SDS011;2967;51.488;6.618;2024-02-14T21:33:38;12.23;;;9.70;;
5882;SDS011;2967;51.488;6.618;2024-02-14T21:38:41;14.00;;;9.13;;
5882;SDS011;2967;51.488;6.618;2024-02-14T21:43:50;10.40;;;9.30;;
5882;SDS011;2967;51.488;6.618;2024-02-14T21:48:56;11.23;;;9.97;;
5882;SDS011;2967;51.488;6.618;2024-02-14T21:54:00;19.10;;;12.37;;
5882;SDS011;2967;51.488;6.618;2024-02-14T21:59:12;12.37;;;8.87;;
5882;SDS011;2967;51.488;6.618;2024-02-14T22:04:15;10.70;;;7.43;;
5882;SDS011;2967;51.488;6.618;2024-02-14T22:09:18;8.30;;;7.00;;
5882;SDS011;2967;51.488;6.618;2024-02-14T22:14:23;11.80;;;6.83;;
5882;SDS011;2967;51.488;6.618;2024-02-14T22:19:27;13.07;;;7.87;;
5882;SDS011;2967;51.488;6.618;2024-02-14T22:24:30;10.20;;;7.70;;
5882;SDS011;2967;51.488;6.618;2024-02-14T22:29:35;12.73;;;8.00;;
5882;SDS011;2967;51.488;6.618;2024-02-14T22:34:39;12.80;;;8.00;;
5882;SDS011;2967;51.488;6.618;2024-02-14T22:39:43;10.40;;;8.47;;
5882;SDS011;2967;51.488;6.618;2024-02-14T22:44:51;15.07;;;9.13;;
5882;SDS011;2967;51.488;6.618;2024-02-14T22:49:55;10.77;;;9.10;;
5882;SDS011;2967;51.488;6.618;2024-02-14T22:54:58;14.87;;;10.73;;
5882;SDS011;2967;51.488;6.618;2024-02-14T23:00:04;13.17;;;9.90;;
5882;SDS011;2967;51.488;6.618;2024-02-14T23:05:17;14.93;;;10.10;;
5882;SDS011;2967;51.488;6.618;2024-02-14T23:10:23;20.03;;;10.67;;
5882;SDS011;2967;51.488;6.618;2024-02-14T23:15:47;15.17;;;10.37;;
5882;SDS011;2967;51.488;6.618;2024-02-14T23:21:13;15.37;;;10.10;;
5882;SDS011;2967;51.488;6.618;2024-02-14T23:26:17;19.60;;;11.40;;
5882;SDS011;2967;51.488;6.618;2024-02-14T23:31:21;15.97;;;11.63;;
5882;SDS011;2967;51.488;6.618;2024-02-14T23:36:25;16.20;;;11.53;;
5882;SDS011;2967;51.488;6.618;2024-02-14T23:41:29;17.60;;;10.90;;
5882;SDS011;2967;51.488;6.618;2024-02-14T23:46:33;16.03;;;12.10;;
5882;SDS011;2967;51.488;6.618;2024-02-14T23:51:37;20.53;;;10.70;;
5882;SDS011;2967;51.488;6.618;2024-02-14T23:56:40;21.43;;;11.13;;
